createdAt,value
2023-01-29T00:00:10.359Z,2.20
2023-01-29T00:02:37.970Z,2.20
2023-01-29T00:05:25.469Z,2.20
2023-01-29T00:07:53.791Z,2.10
2023-01-29T00:10:21.147Z,2.20
2023-01-29T00:12:48.426Z,2.20
2023-01-29T00:15:15.871Z,2.20
2023-01-29T00:17:43.200Z,2.20
2023-01-29T00:20:11.542Z,2.20
2023-01-29T00:22:38.787Z,2.30
2023-01-29T00:25:07.040Z,2.30
2023-01-29T00:27:34.331Z,2.20
2023-01-29T00:30:16.534Z,2.20
2023-01-29T00:32:45.965Z,2.20
2023-01-29T00:35:13.340Z,2.20
2023-01-29T00:37:40.635Z,2.20
2023-01-29T00:40:10.623Z,2.20
2023-01-29T00:42:56.727Z,2.20
2023-01-29T00:45:24.082Z,2.20
2023-01-29T00:47:51.397Z,2.20
2023-01-29T00:50:19.092Z,2.20
2023-01-29T00:52:48.760Z,2.20
2023-01-29T00:55:18.064Z,2.10
2023-01-29T00:57:45.627Z,2.20
2023-01-29T01:00:18.262Z,2.20
2023-01-29T01:03:07.017Z,2.20
2023-01-29T01:05:35.074Z,2.10
2023-01-29T01:08:02.647Z,2.10
2023-01-29T01:10:33.152Z,2.00
2023-01-29T01:13:04.756Z,2.00
2023-01-29T01:15:37.152Z,2.00
2023-01-29T01:18:05.445Z,2.00
2023-01-29T01:20:35.532Z,2.00
2023-01-29T01:23:03.371Z,2.00
2023-01-29T01:25:30.683Z,2.00
2023-01-29T01:30:27.593Z,2.00
2023-01-29T01:32:55.300Z,2.00
2023-01-29T01:35:22.670Z,1.90
2023-01-29T01:37:50.060Z,2.00
2023-01-29T01:40:24.295Z,2.00
2023-01-29T01:42:58.266Z,2.00
2023-01-29T01:45:36.228Z,1.90
2023-01-29T01:48:13.183Z,2.00
2023-01-29T01:51:03.748Z,2.00
2023-01-29T01:53:50.601Z,1.90
2023-01-29T01:56:26.910Z,2.00
2023-01-29T01:58:59.464Z,2.00
2023-01-29T02:01:30.651Z,2.00
2023-01-29T02:04:49.303Z,1.90
2023-01-29T02:07:35.088Z,1.80
2023-01-29T02:10:14.149Z,1.80
2023-01-29T02:12:43.091Z,1.80
2023-01-29T02:15:11.718Z,1.80
2023-01-29T02:17:39.342Z,1.80
2023-01-29T02:20:29.896Z,1.80
2023-01-29T02:23:34.869Z,1.70
2023-01-29T02:26:39.251Z,1.70
2023-01-29T02:29:30.557Z,1.70
2023-01-29T02:32:09.736Z,1.60
2023-01-29T02:35:16.875Z,1.60
2023-01-29T02:38:27.090Z,1.50
2023-01-29T02:41:17.351Z,1.50
2023-01-29T02:44:23.218Z,1.60
2023-01-29T02:47:33.424Z,1.60
2023-01-29T02:50:26.423Z,1.60
2023-01-29T02:53:19.676Z,1.50
2023-01-29T02:56:28.044Z,1.60
2023-01-29T02:59:08.112Z,1.50
2023-01-29T03:01:50.080Z,1.50
2023-01-29T03:04:26.083Z,1.40
2023-01-29T03:07:02.681Z,1.40
2023-01-29T03:09:48.858Z,1.40
2023-01-29T03:12:34.108Z,1.40
2023-01-29T03:15:12.456Z,1.40
2023-01-29T03:17:52.667Z,1.40
2023-01-29T03:20:29.750Z,1.40
2023-01-29T03:23:07.903Z,1.40
2023-01-29T03:25:55.450Z,1.40
2023-01-29T03:28:43.553Z,1.50
2023-01-29T03:31:32.929Z,1.50
2023-01-29T03:34:24.778Z,1.60
2023-01-29T03:37:07.767Z,1.60
2023-01-29T03:39:37.057Z,1.60
2023-01-29T03:43:01.568Z,1.60
2023-01-29T03:46:31.484Z,1.60
2023-01-29T03:49:18.711Z,1.50
2023-01-29T03:52:00.710Z,1.50
2023-01-29T03:54:54.674Z,1.50
2023-01-29T03:58:05.978Z,1.40
2023-01-29T04:00:44.074Z,1.40
2023-01-29T04:03:23.404Z,1.40
2023-01-29T04:06:09.894Z,1.40
2023-01-29T04:08:51.248Z,1.40
2023-01-29T04:11:23.287Z,1.30
2023-01-29T04:13:52.277Z,1.40
2023-01-29T04:16:28.432Z,1.40
2023-01-29T04:18:56.800Z,1.40
2023-01-29T04:21:25.505Z,1.40
2023-01-29T04:23:53.342Z,1.40
2023-01-29T04:26:57.603Z,1.30
2023-01-29T04:29:51.243Z,1.30
2023-01-29T04:33:08.963Z,1.30
2023-01-29T04:36:19.110Z,1.20
2023-01-29T04:39:34.585Z,1.20
2023-01-29T04:42:23.727Z,1.10
2023-01-29T04:44:59.465Z,1.10
2023-01-29T04:47:36.302Z,1.10
2023-01-29T04:50:16.255Z,1.10
2023-01-29T04:53:01.823Z,1.10
2023-01-29T04:55:43.870Z,1.00
2023-01-29T04:58:40.153Z,1.00
2023-01-29T05:01:14.429Z,0.90
2023-01-29T05:03:46.913Z,0.80
2023-01-29T05:06:18.489Z,0.90
2023-01-29T05:08:48.972Z,0.90
2023-01-29T05:11:18.699Z,0.80
2023-01-29T05:13:48.778Z,0.90
2023-01-29T05:16:47.377Z,0.80
2023-01-29T05:19:17.328Z,0.90
2023-01-29T05:21:49.291Z,0.80
2023-01-29T05:24:24.356Z,0.90
2023-01-29T05:27:13.281Z,0.90
2023-01-29T05:29:46.832Z,0.90
2023-01-29T05:32:15.552Z,0.90
2023-01-29T05:34:43.153Z,0.90
2023-01-29T05:37:11.176Z,0.90
2023-01-29T05:39:38.634Z,1.00
2023-01-29T05:42:06.124Z,1.00
2023-01-29T05:44:33.436Z,1.00
2023-01-29T05:47:02.812Z,1.10
2023-01-29T05:49:30.331Z,1.10
2023-01-29T05:51:57.709Z,1.10
2023-01-29T05:54:25.021Z,1.10
2023-01-29T05:56:52.445Z,1.10
2023-01-29T05:59:21.268Z,1.10
2023-01-29T06:01:48.747Z,1.00
2023-01-29T06:04:16.173Z,1.00
2023-01-29T06:06:43.583Z,0.90
2023-01-29T06:09:11.971Z,0.80
2023-01-29T06:11:40.306Z,0.80
2023-01-29T06:14:07.719Z,0.70
2023-01-29T06:16:35.164Z,0.70
2023-01-29T06:19:02.562Z,0.70
2023-01-29T06:21:29.920Z,0.60
2023-01-29T06:23:57.424Z,0.60
2023-01-29T06:26:24.801Z,0.50
2023-01-29T06:28:52.117Z,0.50
2023-01-29T06:31:36.854Z,0.50
2023-01-29T06:34:05.041Z,0.40
2023-01-29T06:36:32.378Z,0.30
2023-01-29T06:38:59.775Z,0.20
2023-01-29T06:41:27.155Z,0.20
2023-01-29T06:43:54.524Z,0.10
2023-01-29T06:46:21.891Z,0.00
2023-01-29T06:48:49.321Z,0.00
2023-01-29T06:51:16.620Z,-0.10
2023-01-29T06:53:46.186Z,-0.10
2023-01-29T06:56:14.203Z,-0.20
2023-01-29T06:58:43.596Z,-0.20
2023-01-29T07:01:25.343Z,-0.30
2023-01-29T07:04:00.269Z,-0.20
2023-01-29T07:06:29.540Z,-0.30
2023-01-29T07:08:57.256Z,-0.20
2023-01-29T07:11:24.936Z,-0.20
2023-01-29T07:13:52.268Z,-0.10
2023-01-29T07:16:19.607Z,0.00
2023-01-29T07:18:47.154Z,0.00
2023-01-29T07:21:14.728Z,0.00
2023-01-29T07:23:42.149Z,0.00
2023-01-29T07:26:11.435Z,0.00
2023-01-29T07:28:40.208Z,0.00
2023-01-29T07:31:11.561Z,0.10
2023-01-29T07:33:39.191Z,0.00
2023-01-29T07:36:11.452Z,0.00
2023-01-29T07:38:38.756Z,0.10
2023-01-29T07:41:06.879Z,0.20
2023-01-29T07:43:34.290Z,0.30
2023-01-29T07:46:05.661Z,0.30
2023-01-29T07:48:33.255Z,0.30
2023-01-29T07:51:01.155Z,0.30
2023-01-29T07:53:29.606Z,0.30
2023-01-29T07:55:57.521Z,0.30
2023-01-29T07:58:24.964Z,0.20
2023-01-29T08:00:52.379Z,0.20
2023-01-29T08:03:22.066Z,0.10
2023-01-29T08:05:50.075Z,0.20
2023-01-29T08:08:17.533Z,0.20
2023-01-29T08:10:44.812Z,0.10
2023-01-29T08:13:12.149Z,0.10
2023-01-29T08:15:43.914Z,0.10
2023-01-29T08:18:12.499Z,0.00
2023-01-29T08:20:39.970Z,0.00
2023-01-29T08:23:15.225Z,-0.10
2023-01-29T08:25:43.167Z,-0.10
2023-01-29T08:28:13.358Z,-0.10
2023-01-29T08:30:40.849Z,-0.10
2023-01-29T08:33:08.283Z,-0.10
2023-01-29T08:35:35.872Z,-0.10
2023-01-29T08:38:05.384Z,-0.20
2023-01-29T08:40:35.359Z,-0.20
2023-01-29T08:43:08.676Z,-0.20
2023-01-29T08:45:41.221Z,-0.10
2023-01-29T08:48:09.411Z,-0.10
2023-01-29T08:50:37.737Z,0.00
2023-01-29T08:53:08.379Z,0.00
2023-01-29T08:55:39.044Z,0.00
2023-01-29T08:58:12.373Z,0.00
2023-01-29T09:00:40.022Z,0.00
2023-01-29T09:03:08.110Z,0.10
2023-01-29T09:05:37.485Z,0.20
2023-01-29T09:08:06.344Z,0.10
2023-01-29T09:10:34.324Z,0.10
2023-01-29T09:13:02.047Z,0.00
2023-01-29T09:15:29.695Z,0.00
2023-01-29T09:17:58.604Z,0.10
2023-01-29T09:20:26.051Z,0.20
2023-01-29T09:22:56.702Z,0.30
2023-01-29T09:25:24.267Z,0.30
2023-01-29T09:27:51.604Z,0.40
2023-01-29T09:30:19.485Z,0.30
2023-01-29T09:32:54.803Z,0.30
2023-01-29T09:35:24.244Z,0.30
2023-01-29T09:37:52.618Z,0.30
2023-01-29T09:40:51.787Z,0.40
2023-01-29T09:43:35.021Z,0.40
2023-01-29T09:46:28.027Z,0.40
2023-01-29T09:49:07.490Z,0.40
2023-01-29T09:52:03.137Z,0.50
2023-01-29T09:54:45.697Z,0.60
2023-01-29T09:57:33.645Z,0.50
2023-01-29T10:00:01.111Z,0.60
2023-01-29T10:02:59.017Z,0.80
2023-01-29T10:05:41.414Z,0.90
2023-01-29T10:08:55.169Z,1.10
2023-01-29T10:11:46.479Z,1.00
2023-01-29T10:14:29.654Z,0.90
2023-01-29T10:17:09.442Z,0.90
2023-01-29T10:20:23.718Z,0.90
2023-01-29T10:23:01.747Z,1.00
2023-01-29T10:25:29.274Z,1.10
2023-01-29T10:28:01.757Z,1.20
2023-01-29T10:30:41.333Z,1.20
2023-01-29T10:34:01.355Z,1.30
2023-01-29T10:36:50.616Z,1.40
2023-01-29T10:39:24.450Z,1.50
2023-01-29T10:42:15.323Z,1.40
2023-01-29T10:45:09.768Z,1.40
2023-01-29T10:48:04.353Z,1.60
2023-01-29T10:50:50.744Z,1.60
2023-01-29T10:53:27.039Z,1.60
2023-01-29T10:56:29.313Z,1.50
2023-01-29T10:59:34.969Z,1.30
2023-01-29T11:02:03.569Z,1.20
2023-01-29T11:04:34.707Z,1.20
2023-01-29T11:07:02.187Z,1.20
2023-01-29T11:09:39.217Z,1.20
2023-01-29T11:12:17.031Z,1.10
2023-01-29T11:15:12.239Z,1.10
2023-01-29T11:17:39.640Z,1.00
2023-01-29T11:20:29.590Z,1.00
2023-01-29T11:22:58.109Z,1.00
2023-01-29T11:25:27.160Z,1.10
2023-01-29T11:28:02.448Z,1.20
2023-01-29T11:30:35.667Z,1.30
2023-01-29T11:33:12.967Z,1.40
2023-01-29T11:35:40.639Z,1.30
2023-01-29T11:38:15.697Z,1.40
2023-01-29T11:40:44.902Z,1.40
2023-01-29T11:43:33.706Z,1.40
2023-01-29T11:46:11.828Z,1.50
2023-01-29T11:48:59.107Z,1.60
2023-01-29T11:51:38.493Z,1.70
2023-01-29T11:54:15.292Z,1.70
2023-01-29T11:56:46.012Z,1.70
2023-01-29T11:59:50.017Z,1.70
2023-01-29T12:02:28.291Z,1.80
2023-01-29T12:05:00.168Z,1.80
2023-01-29T12:07:29.424Z,1.80
2023-01-29T12:09:59.731Z,1.70
2023-01-29T12:12:51.780Z,1.60
2023-01-29T12:15:25.165Z,1.40
2023-01-29T12:18:16.674Z,1.40
2023-01-29T12:20:56.290Z,1.30
2023-01-29T12:23:43.842Z,1.30
2023-01-29T12:26:30.263Z,1.30
2023-01-29T12:29:12.622Z,1.30
2023-01-29T12:32:07.971Z,1.20
2023-01-29T12:34:50.336Z,1.10
2023-01-29T12:37:37.558Z,1.10
2023-01-29T12:40:17.072Z,1.30
2023-01-29T12:43:01.575Z,1.40
2023-01-29T12:45:31.211Z,1.30
2023-01-29T12:48:08.441Z,1.20
2023-01-29T12:50:38.599Z,1.30
2023-01-29T12:53:26.255Z,1.40
2023-01-29T12:56:04.407Z,1.50
2023-01-29T12:58:39.042Z,1.60
2023-01-29T13:01:37.688Z,1.60
2023-01-29T13:04:30.716Z,1.50
2023-01-29T13:07:31.429Z,1.40
2023-01-29T13:10:12.934Z,1.30
2023-01-29T13:12:54.748Z,1.30
2023-01-29T13:15:38.246Z,1.30
2023-01-29T13:18:49.226Z,1.30
2023-01-29T13:21:34.003Z,1.30
2023-01-29T13:24:10.185Z,1.20
2023-01-29T13:26:40.140Z,1.10
2023-01-29T13:29:14.233Z,1.00
2023-01-29T13:31:48.430Z,1.00
2023-01-29T13:34:44.822Z,0.90
2023-01-29T13:37:40.961Z,0.90
2023-01-29T13:40:22.300Z,0.90
2023-01-29T13:42:53.282Z,1.00
2023-01-29T13:45:44.231Z,0.90
2023-01-29T13:48:27.398Z,1.00
2023-01-29T13:51:02.919Z,0.90
2023-01-29T13:53:40.223Z,1.00
2023-01-29T13:56:35.673Z,1.00
2023-01-29T13:59:06.197Z,1.00
2023-01-29T14:01:49.015Z,1.10
2023-01-29T14:04:19.531Z,1.00
2023-01-29T14:06:53.656Z,1.00
2023-01-29T14:09:35.000Z,1.00
2023-01-29T14:12:04.970Z,1.00
2023-01-29T14:15:25.574Z,1.00
2023-01-29T14:18:21.207Z,1.00
2023-01-29T14:20:48.529Z,0.90
2023-01-29T14:23:51.336Z,0.90
2023-01-29T14:26:38.878Z,0.90
2023-01-29T14:29:41.141Z,0.90
2023-01-29T14:32:20.526Z,0.90
2023-01-29T14:35:03.598Z,0.80
2023-01-29T14:37:36.992Z,0.70
2023-01-29T14:40:19.813Z,0.70
2023-01-29T14:43:08.040Z,0.60
2023-01-29T14:45:41.954Z,0.60
2023-01-29T14:48:38.620Z,0.50
2023-01-29T14:51:17.843Z,0.50
2023-01-29T14:53:58.576Z,0.50
2023-01-29T14:56:45.505Z,0.40
2023-01-29T14:59:17.556Z,0.30
2023-01-29T15:01:54.891Z,0.20
2023-01-29T15:04:58.847Z,0.20
2023-01-29T15:07:37.402Z,0.00
2023-01-29T15:10:23.621Z,0.00
2023-01-29T15:13:08.277Z,0.00
2023-01-29T15:15:49.796Z,0.00
2023-01-29T15:18:37.312Z,0.00
2023-01-29T15:21:22.324Z,-0.10
2023-01-29T15:24:29.636Z,-0.20
2023-01-29T15:27:16.347Z,-0.20
2023-01-29T15:29:53.059Z,-0.30
2023-01-29T15:32:40.868Z,-0.30
2023-01-29T15:42:25.784Z,-0.40
2023-01-29T15:46:08.378Z,-0.50
2023-01-29T15:48:44.055Z,-0.50
2023-01-29T15:52:02.638Z,-0.60
2023-01-29T15:54:59.097Z,-0.60
2023-01-29T15:57:35.298Z,-0.70
2023-01-29T16:04:22.476Z,-0.70
2023-01-29T16:07:20.485Z,-0.80
2023-01-29T16:09:48.672Z,-0.90
2023-01-29T16:12:15.966Z,-0.90
2023-01-29T16:15:09.043Z,-0.80
2023-01-29T16:17:52.229Z,-0.90
2023-01-29T16:20:45.389Z,-0.90
2023-01-29T16:23:25.482Z,-0.90
2023-01-29T16:25:58.869Z,-0.90
2023-01-29T16:28:26.827Z,-0.90
2023-01-29T16:31:01.909Z,-0.90
2023-01-29T16:33:38.593Z,-0.90
2023-01-29T16:37:29.616Z,-0.90
2023-01-29T16:39:57.633Z,-0.90
2023-01-29T16:42:32.311Z,-0.80
2023-01-29T16:45:26.394Z,-0.80
2023-01-29T16:48:28.154Z,-0.80
2023-01-29T16:51:38.681Z,-0.80
2023-01-29T16:54:22.349Z,-0.80
2023-01-29T16:56:54.912Z,-0.70
2023-01-29T16:59:36.332Z,-0.80
2023-01-29T17:02:11.268Z,-0.80
2023-01-29T17:04:41.878Z,-0.80
2023-01-29T17:07:21.290Z,-0.80
2023-01-29T17:09:58.892Z,-0.80
2023-01-29T17:12:28.895Z,-0.80
2023-01-29T17:15:30.466Z,-0.80
2023-01-29T17:17:57.811Z,-0.90
2023-01-29T17:20:26.873Z,-0.90
2023-01-29T17:22:54.378Z,-0.90
2023-01-29T17:25:22.218Z,-0.90
2023-01-29T17:27:51.854Z,-0.90
2023-01-29T17:30:26.540Z,-1.00
2023-01-29T17:32:54.100Z,-1.00
2023-01-29T17:35:21.891Z,-1.00
2023-01-29T17:37:49.240Z,-1.00
2023-01-29T17:40:49.807Z,-1.00
2023-01-29T17:43:17.157Z,-1.00
2023-01-29T17:45:44.736Z,-1.00
2023-01-29T17:48:24.267Z,-1.00
2023-01-29T17:50:55.343Z,-1.00
2023-01-29T17:53:26.566Z,-1.00
2023-01-29T17:55:57.789Z,-1.00
2023-01-29T17:58:27.916Z,-1.00
2023-01-29T18:00:55.956Z,-0.90
2023-01-29T18:03:23.433Z,-0.90
2023-01-29T18:05:50.970Z,-0.80
2023-01-29T18:08:20.930Z,-0.80
2023-01-29T18:10:48.386Z,-0.70
2023-01-29T18:13:15.896Z,-0.70
2023-01-29T18:15:43.260Z,-0.60
2023-01-29T18:18:19.219Z,-0.60
2023-01-29T18:20:46.686Z,-0.60
2023-01-29T18:23:14.126Z,-0.60
2023-01-29T18:25:43.248Z,-0.70
2023-01-29T18:28:17.045Z,-0.70
2023-01-29T18:30:47.676Z,-0.70
2023-01-29T18:33:17.240Z,-0.70
2023-01-29T18:35:49.327Z,-0.80
2023-01-29T18:38:18.364Z,-0.80
2023-01-29T18:40:45.912Z,-0.90
2023-01-29T18:43:15.635Z,-0.90
2023-01-29T18:45:43.456Z,-1.00
2023-01-29T18:48:10.873Z,-1.00
2023-01-29T18:50:38.349Z,-1.00
2023-01-29T18:53:05.875Z,-1.00
2023-01-29T18:55:33.993Z,-1.10
2023-01-29T18:58:28.378Z,-1.20
2023-01-29T19:00:48.988Z,-1.20
2023-01-29T19:03:16.556Z,-1.30
2023-01-29T19:05:43.980Z,-1.30
2023-01-29T19:08:11.583Z,-1.30
2023-01-29T19:10:40.595Z,-1.40
2023-01-29T19:13:08.476Z,-1.40
2023-01-29T19:15:36.013Z,-1.40
2023-01-29T19:18:04.309Z,-1.40
2023-01-29T19:20:31.618Z,-1.50
2023-01-29T19:22:59.561Z,-1.50
2023-01-29T19:25:28.217Z,-1.50
2023-01-29T19:27:55.588Z,-1.50
2023-01-29T19:30:23.113Z,-1.40
2023-01-29T19:32:50.555Z,-1.50
2023-01-29T19:35:18.137Z,-1.50
2023-01-29T19:37:46.322Z,-1.50
2023-01-29T19:40:14.926Z,-1.50
2023-01-29T19:42:45.303Z,-1.50
2023-01-29T19:45:12.714Z,-1.50
2023-01-29T19:47:42.204Z,-1.50
2023-01-29T19:50:12.878Z,-1.50
2023-01-29T19:52:51.063Z,-1.50
2023-01-29T19:55:20.674Z,-1.40
2023-01-29T19:57:52.694Z,-1.40
2023-01-29T20:00:21.631Z,-1.50
2023-01-29T20:02:49.946Z,-1.40
2023-01-29T20:05:18.688Z,-1.40
2023-01-29T20:07:46.403Z,-1.40
2023-01-29T20:10:17.539Z,-1.40
2023-01-29T20:12:46.869Z,-1.40
2023-01-29T20:15:15.937Z,-1.40
2023-01-29T20:17:45.575Z,-1.50
2023-01-29T20:20:13.318Z,-1.40
2023-01-29T20:22:40.674Z,-1.50
2023-01-29T20:25:10.135Z,-1.40
2023-01-29T20:27:37.641Z,-1.50
2023-01-29T20:30:06.791Z,-1.40
2023-01-29T20:32:35.327Z,-1.50
2023-01-29T20:35:02.866Z,-1.50
2023-01-29T20:37:30.364Z,-1.50
2023-01-29T20:39:57.636Z,-1.40
2023-01-29T20:42:25.159Z,-1.50
2023-01-29T20:44:52.699Z,-1.50
2023-01-29T20:47:20.915Z,-1.50
2023-01-29T20:49:48.139Z,-1.50
2023-01-29T20:52:15.488Z,-1.50
2023-01-29T20:54:42.820Z,-1.50
2023-01-29T20:57:10.571Z,-1.50
2023-01-29T20:59:37.895Z,-1.50
2023-01-29T21:02:05.285Z,-1.60
2023-01-29T21:04:32.699Z,-1.60
2023-01-29T21:07:00.454Z,-1.60
2023-01-29T21:09:27.825Z,-1.60
2023-01-29T21:11:55.281Z,-1.60
2023-01-29T21:14:25.053Z,-1.60
2023-01-29T21:16:52.563Z,-1.50
2023-01-29T21:19:20.103Z,-1.50
2023-01-29T21:21:47.379Z,-1.60
2023-01-29T21:24:17.561Z,-1.60
2023-01-29T21:26:46.579Z,-1.50
2023-01-29T21:29:14.882Z,-1.50
2023-01-29T21:31:42.652Z,-1.60
2023-01-29T21:34:10.639Z,-1.60
2023-01-29T21:36:39.717Z,-1.60
2023-01-29T21:39:27.554Z,-1.60
2023-01-29T21:42:13.535Z,-1.60
2023-01-29T21:44:40.790Z,-1.60
2023-01-29T21:47:14.500Z,-1.70
2023-01-29T21:49:43.642Z,-1.70
2023-01-29T21:52:13.689Z,-1.70
2023-01-29T21:54:41.985Z,-1.60
2023-01-29T21:57:17.164Z,-1.60
2023-01-29T21:59:48.402Z,-1.60
2023-01-29T22:02:25.116Z,-1.50
2023-01-29T22:05:18.630Z,-1.50
2023-01-29T22:07:59.531Z,-1.50
2023-01-29T22:10:37.303Z,-1.40
2023-01-29T22:13:14.491Z,-1.50
2023-01-29T22:15:42.164Z,-1.40
2023-01-29T22:18:09.589Z,-1.40
2023-01-29T22:20:57.516Z,-1.40
2023-01-29T22:23:29.022Z,-1.40
2023-01-29T22:26:06.838Z,-1.30
2023-01-29T22:28:35.356Z,-1.30
2023-01-29T22:31:04.620Z,-1.30
2023-01-29T22:33:33.561Z,-1.30
2023-01-29T22:36:07.117Z,-1.30
2023-01-29T22:38:47.433Z,-1.30
2023-01-29T22:41:15.466Z,-1.20
2023-01-29T22:43:44.026Z,-1.30
2023-01-29T22:46:11.828Z,-1.30
2023-01-29T22:48:39.399Z,-1.30
2023-01-29T22:51:10.195Z,-1.20
2023-01-29T22:53:44.223Z,-1.20
2023-01-29T22:56:12.570Z,-1.20
2023-01-29T22:58:41.254Z,-1.20
2023-01-29T23:01:09.316Z,-1.20
2023-01-29T23:03:37.208Z,-1.20
2023-01-29T23:06:04.789Z,-1.30
2023-01-29T23:08:36.626Z,-1.20
2023-01-29T23:11:16.162Z,-1.20
2023-01-29T23:13:54.646Z,-1.20
2023-01-29T23:16:27.686Z,-1.20
2023-01-29T23:18:56.798Z,-1.20
2023-01-29T23:21:26.151Z,-1.20
2023-01-29T23:23:55.429Z,-1.20
2023-01-29T23:26:43.017Z,-1.20
2023-01-29T23:29:10.978Z,-1.20
2023-01-29T23:31:40.012Z,-1.20
2023-01-29T23:34:07.399Z,-1.30
2023-01-29T23:36:34.847Z,-1.20
2023-01-29T23:39:02.169Z,-1.20
2023-01-29T23:41:29.531Z,-1.20
2023-01-29T23:43:56.821Z,-1.20
2023-01-29T23:46:24.448Z,-1.30
2023-01-29T23:48:51.932Z,-1.30
2023-01-29T23:51:19.288Z,-1.30
2023-01-29T23:53:46.693Z,-1.30
2023-01-29T23:56:14.115Z,-1.30
2023-01-29T23:58:41.694Z,-1.30
